Time;durP1;ratioP1;P1;durP2;ratioP2;P2;SDS_P1;SDS_P2;PMS_P1;PMS_P2;Temp;Humidity;BMP_temperature;BMP_pressure;BME280_temperature;BME280_humidity;BME280_pressure;Samples;Min_cycle;Max_cycle;Signal;HPM_P1;HPM_P2
2023/01/04 00:01:25;;;;;;;;;1.00;1.00;;;;;10.89;82.41;101901.03;5016288;28;45391;-64
2023/01/04 00:03:50;;;;;;;;;3.33;1.00;;;;;10.90;82.64;101895.63;5017048;28;45595;-63
2023/01/04 00:06:17;;;;;;;;;2.67;2.00;;;;;10.93;82.22;101902.63;5017021;28;45942;-65
2023/01/04 00:08:42;;;;;;;;;2.00;0.00;;;;;10.95;82.18;101898.16;5017212;28;45317;-63
2023/01/04 00:11:12;;;;;;;;;1.00;1.00;;;;;10.93;82.13;101914.16;5016835;28;45391;-63
2023/01/04 00:13:38;;;;;;;;;3.00;2.00;;;;;10.97;82.26;101898.97;5017550;28;45412;-62
2023/01/04 00:16:07;;;;;;;;;1.00;1.00;;;;;10.99;81.98;101907.75;5016455;28;46471;-65
2023/01/04 00:18:33;;;;;;;;;1.67;1.33;;;;;10.97;82.06;101911.41;5016759;28;45407;-64
2023/01/04 00:21:14;;;;;;;;;2.00;2.00;;;;;11.01;81.76;101883.75;5017513;28;45230;-66
2023/01/04 00:23:41;;;;;;;;;1.00;1.00;;;;;11.00;81.87;101888.19;5017071;28;45465;-64
2023/01/04 00:26:08;;;;;;;;;1.67;1.67;;;;;11.09;82.00;101893.19;4999061;28;47024;-65
2023/01/04 00:28:34;;;;;;;;;2.00;2.00;;;;;11.08;81.41;101875.47;5016609;28;45374;-65
2023/01/04 00:31:07;;;;;;;;;1.00;0.67;;;;;11.11;81.40;101887.81;5017206;28;45294;-64
2023/01/04 00:33:32;;;;;;;;;1.00;1.00;;;;;10.99;82.05;101870.50;5016787;28;45447;-65
2023/01/04 00:36:12;;;;;;;;;4.00;3.00;;;;;11.07;81.82;101881.72;4998245;28;45392;-65
2023/01/04 00:38:39;;;;;;;;;1.00;1.00;;;;;11.05;82.01;101878.22;5016158;28;45542;-65
2023/01/04 00:41:06;;;;;;;;;2.67;1.00;;;;;11.14;81.55;101883.22;5016376;28;45394;-66
2023/01/04 00:43:31;;;;;;;;;3.67;1.00;;;;;11.11;82.03;101874.50;5016891;28;45407;-65
2023/01/04 00:45:57;;;;;;;;;4.00;2.00;;;;;11.12;81.89;101886.88;5016597;28;45430;-66
2023/01/04 00:48:23;;;;;;;;;2.00;2.00;;;;;11.14;81.68;101871.69;5016700;28;45358;-62
2023/01/04 00:50:49;;;;;;;;;1.67;1.67;;;;;11.14;82.30;101872.56;5016821;28;45421;-64
2023/01/04 00:53:19;;;;;;;;;3.00;3.00;;;;;11.08;82.26;101864.81;5016959;28;45626;-63
2023/01/04 00:55:45;;;;;;;;;2.33;2.33;;;;;11.14;82.29;101875.22;5016587;28;47206;-63
2023/01/04 00:58:10;;;;;;;;;2.00;2.00;;;;;10.99;82.07;101837.69;5015929;28;45990;-65
2023/01/04 01:00:36;;;;;;;;;4.00;2.00;;;;;11.15;82.28;101873.44;5016510;28;45349;-62
2023/01/04 01:03:02;;;;;;;;;2.33;2.33;;;;;11.12;82.55;101861.13;5016614;28;45628;-65
2023/01/04 01:05:29;;;;;;;;;3.00;2.00;;;;;11.11;82.42;101855.84;5016324;28;45359;-65
2023/01/04 01:07:54;;;;;;;;;4.67;2.67;;;;;11.12;82.94;101855.78;5015448;28;45285;-65
2023/01/04 01:10:19;;;;;;;;;4.00;4.00;;;;;11.11;82.76;101854.06;5016133;28;45855;-64
2023/01/04 01:12:45;;;;;;;;;3.67;2.00;;;;;11.14;82.67;101845.94;5016066;28;45496;-64
2023/01/04 01:15:11;;;;;;;;;4.00;2.00;;;;;11.07;82.43;101824.97;4998382;28;45526;-64
2023/01/04 01:17:37;;;;;;;;;3.00;3.00;;;;;11.05;82.74;101835.63;5016253;28;45388;-64
2023/01/04 01:20:04;;;;;;;;;3.33;2.00;;;;;11.11;82.68;101831.88;5016646;28;45304;-64
2023/01/04 01:22:31;;;;;;;;;3.33;1.67;;;;;11.11;82.57;101831.88;5016832;28;45524;-66
2023/01/04 01:24:57;;;;;;;;;4.67;4.00;;;;;11.10;82.52;101835.47;5015105;28;45406;-61
2023/01/04 01:27:22;;;;;;;;;2.00;2.00;;;;;11.06;82.86;101829.38;5016465;28;45419;-63
2023/01/04 01:29:47;;;;;;;;;2.67;2.67;;;;;11.08;82.62;101832.88;5017475;28;45417;-64
2023/01/04 01:32:13;;;;;;;;;6.33;2.33;;;;;11.10;83.12;101840.81;5017002;28;45567;-64
2023/01/04 01:34:38;;;;;;;;;2.33;2.00;;;;;11.13;82.71;101846.88;5015945;28;46380;-65
2023/01/04 01:37:03;;;;;;;;;1.00;1.00;;;;;11.15;82.73;101834.38;5016130;28;45334;-64
2023/01/04 01:39:29;;;;;;;;;3.00;3.00;;;;;11.16;83.13;101852.06;5014495;28;45265;-63
2023/01/04 01:41:54;;;;;;;;;2.00;2.00;;;;;11.15;83.25;101847.69;5016292;28;46169;-64
2023/01/04 01:44:41;;;;;;;;;2.33;2.33;;;;;11.12;83.21;101847.81;5015890;28;45913;-65
2023/01/04 01:47:38;;;;;;;;;2.00;1.00;;;;;11.13;82.94;101835.34;4998007;28;45476;-64
2023/01/04 01:50:05;;;;;;;;;4.67;3.00;;;;;11.06;83.01;101824.06;5008370;28;45489;-66
2023/01/04 01:52:36;;;;;;;;;2.00;2.00;;;;;11.09;83.63;101839.94;4998867;28;45418;-64
2023/01/04 01:55:06;;;;;;;;;2.67;2.33;;;;;11.13;83.57;101835.34;5014980;28;45372;-64
2023/01/04 01:57:35;;;;;;;;;3.33;2.33;;;;;11.18;83.06;101834.22;5015976;28;45478;-63
2023/01/04 02:00:07;;;;;;;;;2.00;2.00;;;;;11.13;83.05;101825.56;5016018;28;45279;-64
2023/01/04 02:02:33;;;;;;;;;2.33;2.00;;;;;11.17;82.96;101834.28;4997980;28;45677;-63
2023/01/04 02:05:01;;;;;;;;;3.00;3.00;;;;;11.15;83.60;101818.38;5015293;28;46077;-64
2023/01/04 02:07:27;;;;;;;;;5.33;2.00;;;;;11.18;82.80;101828.91;4998789;28;45457;-64
2023/01/04 02:09:54;;;;;;;;;3.00;3.00;;;;;11.10;83.28;101824.81;5016168;28;45384;-65
2023/01/04 02:12:20;;;;;;;;;3.33;2.33;;;;;11.14;83.21;101821.97;5027465;28;45443;-66
2023/01/04 02:14:49;;;;;;;;;2.00;2.00;;;;;11.11;83.17;101829.22;5035312;28;46599;-63
2023/01/04 02:17:23;;;;;;;;;5.33;2.00;;;;;11.14;83.10;101837.94;5001149;28;45298;-65
2023/01/04 02:20:00;;;;;;;;;5.33;3.00;;;;;11.18;83.15;101834.22;5035475;28;45310;-65
2023/01/04 02:22:44;;;;;;;;;3.67;2.00;;;;;11.16;83.54;101838.75;5017637;28;45625;-65
2023/01/04 02:25:28;;;;;;;;;4.67;3.00;;;;;11.18;82.97;101860.00;5036359;28;46118;-64
2023/01/04 02:28:04;;;;;;;;;4.00;2.00;;;;;11.15;83.15;101845.00;5004024;28;45414;-64
2023/01/04 02:30:38;;;;;;;;;3.00;2.00;;;;;11.24;82.50;101854.44;5020689;28;45260;-66
2023/01/04 02:33:36;;;;;;;;;4.00;2.67;;;;;11.22;83.24;101849.19;5039740;28;45422;-63
2023/01/04 02:36:22;;;;;;;;;1.00;1.00;;;;;11.18;83.08;101849.34;5038966;28;46251;-66
2023/01/04 02:39:25;;;;;;;;;3.00;3.00;;;;;11.24;83.07;101846.47;5036843;28;45290;-65
2023/01/04 02:42:16;;;;;;;;;2.00;2.00;;;;;11.27;82.73;101848.13;5018862;28;45330;-63
2023/01/04 02:44:53;;;;;;;;;3.33;3.33;;;;;11.26;82.76;101863.25;5003958;28;45513;-64
2023/01/04 02:50:31;;;;;;;;;2.00;2.00;;;;;11.29;82.66;101846.28;5018675;28;45365;-65
2023/01/04 02:53:10;;;;;;;;;3.33;2.00;;;;;11.28;82.75;101832.09;5019020;28;45300;-65
2023/01/04 02:56:01;;;;;;;;;6.00;2.00;;;;;11.29;82.59;101856.91;5020070;28;45397;-66
2023/01/04 02:58:43;;;;;;;;;2.67;1.00;;;;;11.30;82.70;101853.34;5018662;28;46327;-63
2023/01/04 03:07:47;;;;;;;;;1.00;1.00;;;;;11.33;82.53;101843.44;5018332;28;45403;-63
2023/01/04 03:10:49;;;;;;;;;3.00;3.00;;;;;11.25;82.58;101834.00;5018252;28;46136;-63
2023/01/04 03:13:49;;;;;;;;;1.67;1.67;;;;;11.28;82.51;101826.75;5003718;28;45477;-61
2023/01/04 03:16:20;;;;;;;;;2.00;2.00;;;;;11.34;82.22;101828.34;5039425;28;45386;-62
2023/01/04 03:18:52;;;;;;;;;2.00;2.00;;;;;11.38;82.32;101843.25;5021858;28;45243;-62
2023/01/04 03:21:21;;;;;;;;;1.00;1.00;;;;;11.40;82.46;101838.72;5039740;28;45481;-61
2023/01/04 03:35:26;;;;;;;;;0.33;0.33;;;;;11.38;82.56;101808.63;5039250;28;45301;-64
2023/01/04 03:49:47;;;;;;;;;3.00;3.00;;;;;11.43;82.57;101795.97;5039151;28;45375;-65
2023/01/04 03:52:15;;;;;;;;;2.00;2.00;;;;;11.50;82.30;101790.34;5021613;28;45570;-65
2023/01/04 03:54:47;;;;;;;;;0.00;0.00;;;;;11.51;82.15;101784.09;5039386;28;45233;-62
2023/01/04 03:57:14;;;;;;;;;2.00;1.00;;;;;11.50;82.17;101781.50;5038177;28;45587;-63
2023/01/04 03:59:52;;;;;;;;;2.00;1.00;;;;;11.54;82.11;101783.09;5039252;28;45344;-65
2023/01/04 04:02:30;;;;;;;;;1.00;1.00;;;;;11.42;82.42;101768.47;5038737;28;45608;-64
2023/01/04 04:10:24;;;;;;;;;1.00;1.00;;;;;11.52;82.74;101771.63;5037972;28;45451;-66
2023/01/04 04:12:51;;;;;;;;;2.67;1.00;;;;;11.48;82.82;101767.38;5038202;28;45300;-64
2023/01/04 04:15:16;;;;;;;;;2.00;2.00;;;;;11.45;82.37;101757.69;5020109;28;46915;-65
2023/01/04 04:17:42;;;;;;;;;1.00;1.00;;;;;11.44;82.57;101779.94;5037639;28;45258;-63
2023/01/04 04:20:08;;;;;;;;;1.00;1.00;;;;;11.47;83.18;101769.19;5020564;28;45485;-64
2023/01/04 04:22:34;;;;;;;;;2.00;2.00;;;;;11.48;83.13;101754.06;5020264;28;45514;-63
2023/01/04 04:25:00;;;;;;;;;1.67;1.00;;;;;11.52;83.16;101766.31;5037953;28;46024;-62
2023/01/04 04:27:25;;;;;;;;;1.00;1.00;;;;;11.56;83.33;101778.56;5038084;28;45338;-62
2023/01/04 04:29:51;;;;;;;;;1.00;1.00;;;;;11.58;83.43;101765.19;5019382;28;45320;-66
2023/01/04 04:32:22;;;;;;;;;2.00;1.00;;;;;11.58;83.48;101768.72;5038318;28;45518;-63
2023/01/04 04:34:50;;;;;;;;;3.00;1.67;;;;;11.54;83.49;101775.09;5037828;28;45518;-61
2023/01/04 04:37:15;;;;;;;;;1.33;1.00;;;;;11.52;83.96;101775.16;5019789;28;45405;-63
2023/01/04 04:39:40;;;;;;;;;1.00;1.00;;;;;11.49;83.80;101779.78;5028983;28;45832;-64
2023/01/04 04:42:07;;;;;;;;;1.67;1.00;;;;;11.49;83.77;101769.13;5018449;28;45329;-64
2023/01/04 04:44:33;;;;;;;;;0.67;0.67;;;;;11.50;83.72;101774.38;5017427;28;48263;-66
2023/01/04 04:46:59;;;;;;;;;1.33;1.33;;;;;11.57;83.91;101776.78;4999789;28;45277;-63
2023/01/04 04:49:24;;;;;;;;;1.33;1.33;;;;;11.55;84.01;101771.50;5017487;28;45443;-64
2023/01/04 04:51:49;;;;;;;;;1.33;1.33;;;;;11.56;84.15;101769.72;5000258;28;45435;-65
2023/01/04 04:54:18;;;;;;;;;1.00;1.00;;;;;11.50;83.95;101762.84;5018774;28;46372;-63
2023/01/04 04:56:44;;;;;;;;;2.00;2.00;;;;;11.58;84.01;101763.38;5016909;28;45457;-63
2023/01/04 04:59:09;;;;;;;;;1.33;1.33;;;;;11.59;84.07;101775.81;5016541;28;45251;-64
2023/01/04 05:01:35;;;;;;;;;2.67;1.00;;;;;11.61;84.01;101779.25;5016593;28;45275;-66
2023/01/04 05:04:00;;;;;;;;;1.67;1.67;;;;;11.54;83.75;101740.47;5016924;28;45277;-65
2023/01/04 05:06:27;;;;;;;;;0.00;0.00;;;;;11.59;84.18;101756.25;5015702;28;45360;-64
2023/01/04 05:08:52;;;;;;;;;2.33;1.00;;;;;11.56;84.36;101754.59;5017670;28;45305;-65
2023/01/04 05:12:58;;;;;;;;;1.00;1.00;;;;;11.60;83.84;101745.56;4999201;28;45362;-61
2023/01/04 05:14:03;;;;;;;;;1.67;1.67;;;;;11.61;83.93;101754.41;5017236;28;45941;-62
2023/01/04 05:16:29;;;;;;;;;3.00;1.00;;;;;11.59;83.88;101743.84;5017407;28;45613;-63
2023/01/04 05:18:54;;;;;;;;;0.00;0.00;;;;;11.63;83.93;101745.44;4999553;28;45409;-65
2023/01/04 05:21:19;;;;;;;;;2.00;2.00;;;;;11.59;84.00;101734.94;5017615;28;45416;-62
2023/01/04 05:23:48;;;;;;;;;7.00;2.00;;;;;11.67;83.66;101754.16;5017564;28;45420;-65
2023/01/04 05:26:13;;;;;;;;;1.67;1.67;;;;;11.65;83.88;101756.00;5017177;28;45467;-63
2023/01/04 05:28:39;;;;;;;;;0.00;0.00;;;;;11.60;84.54;101747.34;4999707;28;45335;-62
2023/01/04 05:31:05;;;;;;;;;1.00;1.00;;;;;11.63;84.21;101756.09;5000500;28;45546;-64
2023/01/04 05:33:34;;;;;;;;;3.00;1.00;;;;;11.67;84.20;101756.81;5018075;28;45434;-63
2023/01/04 05:36:04;;;;;;;;;1.67;1.00;;;;;11.68;83.49;101763.88;5018197;28;45435;-63
2023/01/04 05:38:39;;;;;;;;;5.00;2.00;;;;;11.70;84.01;101768.19;5018000;28;45211;-63
2023/01/04 05:42:24;;;;;;;;;0.33;0.33;;;;;11.67;84.59;101741.69;5000106;28;45368;-62
2023/01/04 05:43:50;;;;;;;;;1.00;1.00;;;;;11.67;84.36;101760.34;4997952;28;45886;-63
2023/01/04 05:46:15;;;;;;;;;1.00;1.00;;;;;11.67;84.38;101747.00;4998392;28;45242;-64
2023/01/04 05:48:41;;;;;;;;;1.00;1.00;;;;;11.58;84.72;101736.72;4998909;28;45305;-65
2023/01/04 05:51:06;;;;;;;;;1.00;1.00;;;;;11.68;85.00;101764.75;5015436;28;46258;-64
2023/01/04 05:53:31;;;;;;;;;1.00;1.00;;;;;11.68;84.72;101764.75;5016121;28;50269;-65
2023/01/04 05:55:57;;;;;;;;;1.00;1.00;;;;;11.72;84.60;101753.03;5016399;28;45206;-65
2023/01/04 05:58:22;;;;;;;;;0.33;0.33;;;;;11.69;84.71;101758.47;5015802;28;45320;-64
2023/01/04 06:00:47;;;;;;;;;1.00;1.00;;;;;11.65;85.24;101748.88;5019060;28;45463;-63
2023/01/04 06:03:13;;;;;;;;;1.00;1.00;;;;;11.72;85.15;101765.50;5019447;28;46138;-66
2023/01/04 06:05:38;;;;;;;;;1.00;1.00;;;;;11.63;85.46;101757.88;5019555;28;45235;-63
2023/01/04 06:08:06;;;;;;;;;1.00;1.00;;;;;11.74;85.39;101776.97;4999487;28;45249;-64
2023/01/04 06:10:32;;;;;;;;;1.00;1.00;;;;;11.74;85.28;101772.50;4999470;28;45400;-62
2023/01/04 06:12:57;;;;;;;;;1.00;1.00;;;;;11.75;85.71;101765.38;5015352;28;45494;-68
2023/01/04 06:15:23;;;;;;;;;0.00;0.00;;;;;11.76;85.25;101773.28;5019431;28;45396;-64
2023/01/04 06:17:48;;;;;;;;;2.00;1.00;;;;;11.74;85.74;101764.50;5019451;28;45372;-66
2023/01/04 06:20:13;;;;;;;;;0.67;0.67;;;;;11.59;85.66;101738.50;5019806;28;45612;-65
2023/01/04 06:22:40;;;;;;;;;1.33;1.33;;;;;11.76;85.57;101756.44;5001378;28;45367;-65
2023/01/04 06:25:07;;;;;;;;;3.00;2.00;;;;;11.72;85.13;101747.72;5017328;28;45416;-65
2023/01/04 06:27:35;;;;;;;;;3.00;1.67;;;;;11.79;85.28;101757.19;5018888;28;45369;-67
2023/01/04 06:30:01;;;;;;;;;1.00;0.00;;;;;11.75;84.77;101739.56;5019510;28;45825;-67
2023/01/04 06:32:26;;;;;;;;;0.00;0.00;;;;;11.76;84.88;101729.78;5019251;28;46039;-66
2023/01/04 06:34:52;;;;;;;;;0.00;0.00;;;;;11.80;85.14;101744.72;5018938;28;45339;-65
2023/01/04 06:37:17;;;;;;;;;3.00;0.67;;;;;11.75;85.45;101736.91;5019432;28;45316;-67
2023/01/04 06:39:43;;;;;;;;;0.00;0.00;;;;;11.67;85.26;101722.16;5018941;28;46097;-66
2023/01/04 06:42:43;;;;;;;;;2.33;1.00;;;;;11.77;85.33;101748.38;5018684;28;45469;-67
2023/01/04 06:44:54;;;;;;;;;1.00;1.00;;;;;11.80;85.70;101758.94;5018668;28;45346;-64
2023/01/04 06:47:19;;;;;;;;;0.67;0.00;;;;;11.82;85.49;101749.06;5018986;28;45544;-64
2023/01/04 06:49:44;;;;;;;;;0.00;0.00;;;;;11.74;85.44;101740.50;5018988;28;45481;-63
2023/01/04 06:52:10;;;;;;;;;3.00;1.00;;;;;11.80;86.24;101764.25;5016852;28;45864;-65
2023/01/04 06:54:35;;;;;;;;;0.00;0.00;;;;;11.79;86.55;101767.84;5018319;28;45296;-64
2023/01/04 06:57:00;;;;;;;;;2.67;1.00;;;;;11.80;86.89;101774.06;5019810;28;45308;-63
2023/01/04 06:59:26;;;;;;;;;2.00;1.00;;;;;11.76;87.64;101772.41;5038700;28;45573;-64
2023/01/04 07:01:51;;;;;;;;;1.33;1.33;;;;;11.82;87.19;101770.38;5020441;28;47564;-64
2023/01/04 07:04:17;;;;;;;;;1.00;1.00;;;;;11.81;86.74;101760.66;5038080;28;45405;-62
2023/01/04 07:06:42;;;;;;;;;1.00;1.00;;;;;11.84;86.58;101754.31;5020358;28;45512;-64
2023/01/04 07:09:07;;;;;;;;;1.00;1.00;;;;;11.85;86.42;101757.84;5038724;28;45498;-64
2023/01/04 07:11:33;;;;;;;;;2.00;1.00;;;;;11.84;86.30;101759.66;5036899;28;45354;-64
2023/01/04 07:13:58;;;;;;;;;0.00;0.00;;;;;11.79;86.41;101756.31;5038286;28;45914;-66
2023/01/04 07:16:24;;;;;;;;;1.00;1.00;;;;;11.86;86.06;101763.16;5038759;28;45297;-65
2023/01/04 07:18:49;;;;;;;;;1.00;1.00;;;;;11.89;85.81;101752.34;5038827;28;45316;-66
2023/01/04 07:21:14;;;;;;;;;2.67;1.33;;;;;11.89;85.55;101754.16;5037877;28;46222;-64
2023/01/04 07:23:40;;;;;;;;;1.67;1.67;;;;;11.97;85.80;101760.00;5037836;28;45328;-64
2023/01/04 07:26:05;;;;;;;;;1.00;1.00;;;;;11.95;85.61;101761.88;5037818;28;45418;-66
2023/01/04 07:31:15;;;;;;;;;1.00;1.00;;;;;11.99;84.89;101759.03;5037841;28;45938;-66
2023/01/04 07:33:40;;;;;;;;;0.33;0.00;;;;;11.98;85.16;101745.72;5019753;28;45828;-65
2023/01/04 07:36:06;;;;;;;;;0.00;0.00;;;;;12.07;85.18;101761.34;5037538;28;45415;-64
2023/01/04 07:38:35;;;;;;;;;1.00;0.00;;;;;12.04;84.89;101751.66;5019644;28;45687;-66
2023/01/04 07:41:00;;;;;;;;;1.00;1.00;;;;;12.09;84.65;101771.00;5037124;28;45453;-64
2023/01/04 07:43:26;;;;;;;;;0.33;0.33;;;;;12.12;85.00;101775.34;5037346;28;45348;-63
2023/01/04 07:45:51;;;;;;;;;1.00;1.00;;;;;12.18;85.28;101772.41;5019932;28;45423;-65
2023/01/04 07:48:17;;;;;;;;;1.00;1.00;;;;;12.21;84.48;101763.38;5037241;28;45511;-65
2023/01/04 07:50:44;;;;;;;;;0.00;0.00;;;;;12.24;83.73;101768.59;5037140;28;45304;-64
2023/01/04 07:53:12;;;;;;;;;2.00;0.00;;;;;12.25;84.00;101770.34;5037254;28;45752;-66
2023/01/04 07:55:38;;;;;;;;;0.00;0.00;;;;;12.21;83.92;101758.06;5003083;28;45488;-65
2023/01/04 07:58:04;;;;;;;;;0.67;0.67;;;;;12.26;84.01;101770.28;5009291;28;45441;-68
2023/01/04 08:00:29;;;;;;;;;1.33;1.00;;;;;12.26;84.05;101764.94;5016405;28;45304;-66
2023/01/04 08:02:55;;;;;;;;;1.00;1.00;;;;;12.24;83.94;101757.91;5017512;28;45309;-67
2023/01/04 08:05:23;;;;;;;;;0.00;0.00;;;;;12.26;84.04;101767.59;5017375;28;45807;-68
2023/01/04 08:07:49;;;;;;;;;2.33;1.00;;;;;12.31;83.86;101762.91;5017307;28;45622;-65
2023/01/04 08:10:14;;;;;;;;;1.00;1.00;;;;;12.32;84.24;101772.66;5017168;28;45680;-63
2023/01/04 08:12:39;;;;;;;;;1.00;1.00;;;;;12.38;84.18;101771.53;5016458;28;63969;-64
2023/01/04 08:15:05;;;;;;;;;2.00;0.67;;;;;12.33;84.66;101769.03;5017408;28;45456;-65
2023/01/04 08:17:31;;;;;;;;;1.00;1.00;;;;;12.26;84.60;101751.59;4999077;28;45580;-65
2023/01/04 08:19:56;;;;;;;;;1.00;1.00;;;;;12.32;85.08;101761.97;4999418;28;45752;-64
2023/01/04 08:22:22;;;;;;;;;1.00;1.00;;;;;12.35;84.94;101767.19;5016082;28;45482;-63
2023/01/04 08:24:47;;;;;;;;;0.00;0.00;;;;;12.34;84.54;101760.09;5017081;28;45328;-66
2023/01/04 08:27:13;;;;;;;;;1.00;1.00;;;;;12.37;84.83;101770.66;5017448;28;45364;-63
2023/01/04 08:29:38;;;;;;;;;3.00;3.00;;;;;12.36;84.78;101763.56;5016983;28;45399;-66
2023/01/04 08:32:04;;;;;;;;;3.00;2.00;;;;;12.38;84.75;101759.06;5016756;28;45323;-64
2023/01/04 08:34:30;;;;;;;;;2.33;1.33;;;;;12.44;84.57;101757.03;4999391;28;45436;-64
2023/01/04 08:36:56;;;;;;;;;2.00;1.00;;;;;12.26;84.34;101724.94;5017374;28;45559;-65
2023/01/04 08:39:21;;;;;;;;;1.00;1.00;;;;;12.41;84.57;101760.72;5016379;28;45452;-64
2023/01/04 08:41:49;;;;;;;;;1.67;1.00;;;;;12.45;84.60;101761.44;5016628;28;45358;-63
2023/01/04 08:44:20;;;;;;;;;2.00;2.00;;;;;12.47;84.64;101763.09;4998797;28;45440;-67
2023/01/04 08:46:46;;;;;;;;;1.00;1.00;;;;;12.41;84.66;101768.72;5016365;28;45517;-65
2023/01/04 08:49:15;;;;;;;;;3.00;1.00;;;;;12.48;84.23;101782.63;5016372;28;46003;-65
2023/01/04 08:51:41;;;;;;;;;1.67;1.67;;;;;12.49;84.32;101771.03;5016335;28;45302;-64
2023/01/04 08:54:07;;;;;;;;;1.00;1.00;;;;;12.50;84.36;101770.09;5016471;28;45395;-64
2023/01/04 08:56:33;;;;;;;;;0.00;0.00;;;;;12.54;84.12;101777.91;5016489;28;45467;-65
2023/01/04 08:58:59;;;;;;;;;1.00;1.00;;;;;12.56;84.09;101777.81;5016568;28;46096;-65
2023/01/04 09:01:24;;;;;;;;;1.00;1.00;;;;;12.51;83.99;101755.84;4999029;28;45496;-67
2023/01/04 09:03:50;;;;;;;;;1.00;1.00;;;;;12.55;83.83;101766.28;5016390;28;45269;-65
2023/01/04 09:06:15;;;;;;;;;1.00;1.00;;;;;12.56;84.16;101775.16;5016500;28;45630;-64
2023/01/04 09:08:43;;;;;;;;;3.00;2.33;;;;;12.58;84.12;101762.59;5016236;28;45237;-63
2023/01/04 09:11:11;;;;;;;;;0.67;0.67;;;;;12.60;84.52;101763.41;5017372;28;45352;-62
2023/01/04 09:13:37;;;;;;;;;1.00;1.00;;;;;12.59;84.66;101765.22;5018221;28;45451;-63
2023/01/04 09:16:08;;;;;;;;;1.00;1.00;;;;;12.57;84.69;101750.22;5036201;28;45380;-65
2023/01/04 09:18:34;;;;;;;;;0.33;0.33;;;;;12.61;84.76;101763.31;5035962;28;45219;-64
2023/01/04 09:21:11;;;;;;;;;0.00;0.00;;;;;12.64;85.19;101757.00;5018594;28;45381;-63
2023/01/04 09:23:39;;;;;;;;;0.67;0.67;;;;;12.60;84.58;101752.72;5036497;28;45401;-64
2023/01/04 09:26:09;;;;;;;;;0.00;0.00;;;;;12.60;84.15;101750.91;5036332;28;45457;-64
2023/01/04 09:28:34;;;;;;;;;1.00;1.00;;;;;12.65;84.40;101742.72;5036067;28;46401;-68
2023/01/04 09:31:07;;;;;;;;;1.00;1.00;;;;;12.66;84.47;101749.78;5036678;28;45494;-65
2023/01/04 09:33:33;;;;;;;;;1.00;1.00;;;;;12.67;84.42;101747.03;5036007;28;45250;-64
2023/01/04 09:36:06;;;;;;;;;1.67;1.00;;;;;12.69;84.05;101742.50;5036492;28;45320;-61
2023/01/04 09:38:33;;;;;;;;;0.33;0.33;;;;;12.74;84.25;101754.75;5017187;28;47617;-66
2023/01/04 09:41:21;;;;;;;;;0.00;0.00;;;;;12.74;83.82;101752.09;5018484;28;45420;-73
2023/01/04 09:43:48;;;;;;;;;0.00;0.00;;;;;12.72;84.29;101746.81;5035924;28;45418;-74
2023/01/04 09:46:36;;;;;;;;;0.67;0.67;;;;;12.74;83.77;101742.28;5036063;28;45301;-68
2023/01/04 09:49:35;;;;;;;;;1.00;1.00;;;;;12.72;84.21;101733.47;5035388;28;45437;-67
2023/01/04 09:52:09;;;;;;;;;0.00;0.00;;;;;12.76;83.64;101735.09;5035118;28;45459;-69
2023/01/04 09:54:48;;;;;;;;;1.00;1.00;;;;;12.82;83.70;101750.81;5036590;28;45486;-66
2023/01/04 09:57:51;;;;;;;;;1.67;1.33;;;;;12.81;83.81;101759.75;5035344;28;45369;-67
2023/01/04 10:00:29;;;;;;;;;0.33;0.33;;;;;12.88;83.41;101768.31;4994399;28;45496;-67
2023/01/04 10:03:10;;;;;;;;;2.00;2.00;;;;;12.91;83.16;101765.53;5017831;28;45423;-66
2023/01/04 10:05:36;;;;;;;;;1.00;1.00;;;;;12.90;83.41;101748.66;5017695;28;45333;-63
2023/01/04 10:08:02;;;;;;;;;1.00;1.00;;;;;12.94;83.72;101752.03;5036123;28;45308;-65
2023/01/04 10:11:02;;;;;;;;;2.00;2.00;;;;;12.92;83.34;101757.44;5017844;28;46814;-64
2023/01/04 10:13:48;;;;;;;;;3.00;1.00;;;;;12.98;83.21;101757.13;5017670;28;45389;-66
2023/01/04 10:16:21;;;;;;;;;3.00;2.00;;;;;12.96;83.29;101759.03;5035166;28;45639;-64
2023/01/04 10:19:05;;;;;;;;;3.00;1.00;;;;;12.98;82.78;101757.13;5035409;28;45352;-65
2023/01/04 10:21:45;;;;;;;;;1.00;1.00;;;;;13.03;82.82;101766.75;5035560;28;46033;-68
2023/01/04 10:24:19;;;;;;;;;2.00;2.00;;;;;12.98;82.89;101751.81;5017251;28;45417;-66
2023/01/04 10:26:47;;;;;;;;;1.00;1.00;;;;;13.02;82.85;101751.66;5035625;28;45331;-69
2023/01/04 10:29:25;;;;;;;;;1.00;1.00;;;;;13.08;82.64;101768.25;5035817;28;45355;-62
2023/01/04 10:32:00;;;;;;;;;1.33;1.33;;;;;13.07;82.44;101766.53;5034902;28;46164;-64
2023/01/04 10:34:30;;;;;;;;;3.00;1.00;;;;;13.05;82.66;101752.38;5035300;28;45277;-63
2023/01/04 10:36:58;;;;;;;;;0.00;0.00;;;;;13.04;82.46;101757.81;5034708;28;45362;-62
2023/01/04 10:39:29;;;;;;;;;0.00;0.00;;;;;13.04;83.04;101753.31;5035543;28;45246;-65
2023/01/04 10:42:17;;;;;;;;;1.00;1.00;;;;;13.11;82.53;101751.22;5017183;28;47928;-62
2023/01/04 10:45:01;;;;;;;;;1.00;1.00;;;;;13.08;82.31;101760.25;5017194;28;45438;-62
2023/01/04 10:47:32;;;;;;;;;1.00;1.00;;;;;13.03;82.72;101748.06;5038428;28;45364;-63
2023/01/04 10:50:07;;;;;;;;;1.00;1.00;;;;;13.04;83.47;101747.13;5038842;28;45644;-64
2023/01/04 10:52:46;;;;;;;;;0.67;0.67;;;;;12.99;83.54;101752.66;5038549;28;46315;-64
2023/01/04 10:55:19;;;;;;;;;1.00;1.00;;;;;13.03;83.26;101753.41;5020546;28;45451;-60
2023/01/04 10:57:53;;;;;;;;;1.33;1.33;;;;;13.03;83.19;101750.75;5038056;28;45328;-63
2023/01/04 11:00:29;;;;;;;;;1.00;1.00;;;;;13.05;83.03;101741.72;5038208;28;45454;-62
2023/01/04 11:03:19;;;;;;;;;2.00;2.00;;;;;13.04;83.66;101750.66;5038362;28;46208;-62
2023/01/04 11:06:14;;;;;;;;;1.00;1.00;;;;;13.04;83.78;101744.47;5040361;28;45319;-64
2023/01/04 11:08:49;;;;;;;;;2.00;1.67;;;;;13.03;84.11;101751.59;5021054;28;45374;-67
2023/01/04 11:11:28;;;;;;;;;2.00;2.00;;;;;12.99;83.79;101726.81;5019973;28;45475;-67
2023/01/04 11:13:54;;;;;;;;;3.00;1.00;;;;;12.99;83.83;101737.50;5019978;28;47117;-64
2023/01/04 11:16:22;;;;;;;;;2.00;2.00;;;;;12.97;83.76;101728.72;5020239;28;45367;-67
2023/01/04 11:18:49;;;;;;;;;2.00;2.00;;;;;12.96;84.07;101736.78;5037749;28;45352;-65
2023/01/04 11:21:21;;;;;;;;;4.00;2.00;;;;;13.00;83.87;101735.69;5038146;28;45418;-63
2023/01/04 11:23:46;;;;;;;;;2.67;1.00;;;;;12.98;84.16;101735.78;5020404;28;46354;-62
2023/01/04 11:26:19;;;;;;;;;0.00;0.00;;;;;12.90;83.95;101732.63;5038056;28;47187;-62
2023/01/04 11:28:50;;;;;;;;;3.00;2.00;;;;;12.81;84.45;101711.69;5020921;28;45380;-65
2023/01/04 11:31:50;;;;;;;;;2.67;1.00;;;;;12.97;84.63;101726.03;5020016;28;46086;-64
2023/01/04 11:34:16;;;;;;;;;2.33;1.00;;;;;13.00;84.36;101723.22;5037738;28;46189;-66
2023/01/04 11:36:43;;;;;;;;;3.00;2.00;;;;;13.00;84.26;101711.66;5020160;28;45456;-67
2023/01/04 11:39:22;;;;;;;;;1.00;1.00;;;;;12.96;84.94;101729.66;5038258;28;45406;-63
2023/01/04 11:41:55;;;;;;;;;1.00;1.00;;;;;12.98;84.82;101724.22;5020395;28;45812;-65
2023/01/04 11:44:22;;;;;;;;;2.00;2.00;;;;;12.96;85.03;101702.94;5037559;28;46034;-67
2023/01/04 11:47:11;;;;;;;;;2.00;2.00;;;;;13.05;85.27;101708.78;5037759;28;45328;-65
2023/01/04 11:49:36;;;;;;;;;2.00;2.00;;;;;12.99;85.21;101699.25;5038041;28;45429;-63
2023/01/04 11:52:03;;;;;;;;;2.00;2.00;;;;;12.96;85.80;101700.28;5037482;28;45421;-62
2023/01/04 11:54:29;;;;;;;;;3.00;2.00;;;;;13.00;85.20;101687.63;5037432;28;46209;-65
2023/01/04 11:57:01;;;;;;;;;2.33;1.00;;;;;13.04;85.23;101704.41;5036261;28;45365;-66
2023/01/04 11:59:27;;;;;;;;;3.00;3.00;;;;;13.04;85.67;101691.91;5017455;28;45304;-63
2023/01/04 12:02:22;;;;;;;;;4.00;2.00;;;;;13.05;85.69;101695.44;5017455;28;45587;-65
2023/01/04 12:04:50;;;;;;;;;3.67;3.67;;;;;13.07;85.24;101691.75;4999541;28;46185;-62
2023/01/04 12:07:34;;;;;;;;;2.00;2.00;;;;;13.11;84.91;101689.78;4999578;28;45279;-62
2023/01/04 12:10:10;;;;;;;;;1.67;1.67;;;;;13.07;85.44;101682.88;5017298;28;45458;-63
2023/01/04 12:12:36;;;;;;;;;1.00;1.00;;;;;13.07;86.04;101680.19;5017680;28;45562;-62
2023/01/04 12:15:13;;;;;;;;;2.00;2.00;;;;;13.12;86.12;101699.53;5016773;28;46164;-61
2023/01/04 12:17:54;;;;;;;;;2.00;2.00;;;;;13.10;86.17;101682.72;5017413;28;45231;-63
2023/01/04 12:20:23;;;;;;;;;0.00;0.00;;;;;13.05;87.19;101700.78;5017380;28;45415;-65